Time;durP1;ratioP1;P1;durP2;ratioP2;P2;SDS_P1;SDS_P2;PMS_P1;PMS_P2;Temp;Humidity;BMP_temperature;BMP_pressure;BME280_temperature;BME280_humidity;BME280_pressure;Samples;Min_cycle;Max_cycle;Signal;HPM_P1;HPM_P2
2021/05/13 00:27:02;;;;;;;11.68;5.28;;;;;;;12.97;63.64;101096.84;5892848;23;20037;-81
2021/05/13 00:29:28;;;;;;;15.02;6.22;;;;;;;12.93;63.14;101099.63;4987439;28;20038;-80
2021/05/13 00:31:55;;;;;;;10.10;6.20;;;;;;;12.92;63.16;101096.97;4976406;28;20027;-83
2021/05/13 00:34:23;;;;;;;11.73;5.43;;;;;;;12.88;63.10;101104.16;4983421;28;20049;-82
2021/05/13 00:36:57;;;;;;;12.68;6.07;;;;;;;12.91;63.01;101101.44;4983583;28;20098;-80
2021/05/13 00:39:23;;;;;;;8.70;5.15;;;;;;;12.88;63.78;101098.84;4978848;28;20035;-81
2021/05/13 00:41:50;;;;;;;9.30;4.75;;;;;;;12.88;63.34;101096.19;4978039;28;20059;-82
2021/05/13 00:44:17;;;;;;;10.00;5.07;;;;;;;12.88;63.62;101104.16;4976972;28;20026;-81
2021/05/13 00:46:44;;;;;;;12.30;5.80;;;;;;;12.87;63.71;101105.09;4977494;28;20109;-81
2021/05/13 00:49:14;;;;;;;11.82;5.38;;;;;;;12.87;63.63;101104.19;4985311;28;20397;-81
2021/05/13 00:51:40;;;;;;;10.27;6.05;;;;;;;12.83;63.14;101098.09;4959541;28;20039;-81
2021/05/13 00:54:07;;;;;;;12.60;5.70;;;;;;;12.81;63.43;101099.03;4983727;28;20042;-81
2021/05/13 00:56:34;;;;;;;7.43;4.75;;;;;;;12.80;63.56;101100.84;4982533;28;20058;-82
2021/05/13 00:59:06;;;;;;;12.77;5.28;;;;;;;12.78;63.38;101100.88;4984281;28;20042;-82
2021/05/13 01:01:48;;;;;;;8.65;5.65;;;;;;;12.76;63.24;101093.81;4978500;28;20466;-80
2021/05/13 01:04:18;;;;;;;9.70;5.03;;;;;;;12.76;63.57;101091.16;4963597;28;20039;-81
2021/05/13 01:06:47;;;;;;;9.77;4.72;;;;;;;12.73;63.62;101085.94;4981743;28;20026;-81
2021/05/13 01:09:21;;;;;;;12.25;5.47;;;;;;;12.69;63.50;101087.78;4993595;28;20034;-81
2021/05/13 01:11:52;;;;;;;11.05;5.60;;;;;;;12.68;63.78;101087.84;4977053;28;20394;-82
2021/05/13 01:19:55;;;;;;;10.27;5.57;;;;;;;12.65;63.22;101083.47;5076998;27;20402;-81
2021/05/13 01:22:25;;;;;;;8.25;4.85;;;;;;;12.62;63.12;101084.44;5071664;28;20028;-81
2021/05/13 01:24:52;;;;;;;13.25;5.88;;;;;;;12.57;63.89;101083.69;5071290;28;20502;-81
2021/05/13 01:27:19;;;;;;;13.20;5.78;;;;;;;12.56;63.48;101084.56;5056352;28;20065;-83
2021/05/13 01:29:48;;;;;;;6.93;5.00;;;;;;;12.55;64.04;101082.81;5034297;28;20025;-87
2021/05/13 01:32:17;;;;;;;10.68;6.00;;;;;;;12.56;64.07;101089.91;5047278;28;20040;-82
2021/05/13 01:34:45;;;;;;;10.43;4.95;;;;;;;12.52;64.16;101082.88;5050189;28;20120;-81
2021/05/13 01:37:12;;;;;;;11.63;5.70;;;;;;;12.53;63.80;101089.09;5040723;28;20033;-81
2021/05/13 01:39:38;;;;;;;10.63;5.30;;;;;;;12.51;64.09;101081.16;5051107;28;20026;-81
2021/05/13 01:42:05;;;;;;;7.93;5.55;;;;;;;12.49;63.80;101082.97;5051430;28;20037;-82
2021/05/13 01:44:31;;;;;;;11.75;6.40;;;;;;;12.48;63.84;101077.72;5032857;28;20057;-83
2021/05/13 01:46:58;;;;;;;15.85;6.82;;;;;;;12.46;63.37;101078.59;5049784;28;20033;-83
2021/05/13 01:49:25;;;;;;;16.85;6.47;;;;;;;12.46;63.50;101080.38;5049361;28;20125;-80
2021/05/13 01:51:52;;;;;;;16.27;7.55;;;;;;;12.44;63.85;101074.25;5050159;28;20026;-82
2021/05/13 01:54:18;;;;;;;12.45;6.93;;;;;;;12.43;64.17;101068.03;5050209;28;20151;-81
2021/05/13 07:54:57;;;;;;;24.35;16.83;;;;;;;16.54;63.05;100902.34;5023484;22;20052;-79
2021/05/13 07:57:23;;;;;;;28.42;18.33;;;;;;;16.65;62.87;100906.28;5046015;28;20029;-86
2021/05/13 07:59:49;;;;;;;20.27;16.98;;;;;;;16.77;63.01;100899.53;5026005;28;20021;-86
2021/05/13 08:02:16;;;;;;;23.92;18.13;;;;;;;16.88;62.53;100899.00;5032959;28;20041;-90
2021/05/13 08:04:43;;;;;;;23.92;17.60;;;;;;;17.04;62.25;100896.53;5025146;28;20077;-89
2021/05/13 08:07:12;;;;;;;22.42;17.67;;;;;;;17.17;62.23;100888.81;5026150;28;20038;-92
2021/05/13 08:09:38;;;;;;;22.35;17.05;;;;;;;17.25;62.02;100893.81;5027773;28;20051;-91
2021/05/13 08:15:02;;;;;;;23.00;17.15;;;;;;;17.44;61.47;100891.97;5677331;22;20062;-89
2021/05/13 08:17:29;;;;;;;20.10;16.02;;;;;;;17.54;61.35;100884.38;5045255;28;20036;-86
2021/05/13 08:19:55;;;;;;;18.92;15.88;;;;;;;17.64;60.89;100890.16;5047532;28;20063;-88
2021/05/13 08:22:21;;;;;;;22.92;14.90;;;;;;;17.77;60.86;100891.28;5053138;28;20021;-85
2021/05/13 08:24:47;;;;;;;22.17;15.20;;;;;;;17.87;60.11;100897.06;5052690;28;20033;-82
2021/05/13 08:27:13;;;;;;;22.27;15.52;;;;;;;17.99;59.73;100894.75;5052024;28;20044;-80
2021/05/13 08:29:39;;;;;;;17.58;14.82;;;;;;;18.07;59.41;100893.41;5052600;28;20029;-80
2021/05/13 08:32:06;;;;;;;35.97;16.92;;;;;;;18.15;58.84;100897.50;5043078;28;20534;-82
2021/05/13 08:34:33;;;;;;;20.27;14.50;;;;;;;18.28;58.34;100890.59;5044343;28;20044;-83
2021/05/13 08:36:59;;;;;;;16.85;12.35;;;;;;;18.41;58.05;100883.59;5048423;28;20480;-89
2021/05/13 08:39:26;;;;;;;18.75;13.45;;;;;;;18.54;57.57;100885.66;5045407;28;20067;-84
2021/05/13 08:41:52;;;;;;;19.05;12.85;;;;;;;18.67;57.28;100886.75;5042581;28;20427;-85
2021/05/13 08:44:19;;;;;;;16.85;13.00;;;;;;;18.79;56.90;100892.41;5048190;28;20167;-84
2021/05/13 08:46:47;;;;;;;20.50;14.30;;;;;;;18.85;56.28;100889.38;5043985;28;20112;-85
2021/05/13 08:49:13;;;;;;;16.98;13.95;;;;;;;18.90;56.29;100882.88;5044502;28;20112;-85
2021/05/13 08:51:40;;;;;;;22.08;14.45;;;;;;;18.98;56.11;100885.13;5044213;28;20033;-83
2021/05/13 08:54:06;;;;;;;17.05;12.60;;;;;;;19.12;55.90;100886.19;5046411;28;20072;-82
2021/05/13 08:56:33;;;;;;;15.30;11.55;;;;;;;19.23;55.72;100881.94;5049480;28;20021;-83
2021/05/13 08:59:06;;;;;;;15.27;11.52;;;;;;;19.34;55.18;100881.34;5045846;28;20110;-84
2021/05/13 09:01:38;;;;;;;18.77;10.48;;;;;;;19.48;54.57;100883.25;5048437;28;20033;-85
2021/05/13 09:04:04;;;;;;;18.60;11.35;;;;;;;19.59;54.43;100884.44;5046487;28;20033;-88
2021/05/13 09:06:34;;;;;;;17.58;12.77;;;;;;;19.71;54.07;100868.50;5050152;28;20040;-85
2021/05/13 09:09:18;;;;;;;17.80;12.32;;;;;;;19.91;53.09;100866.47;5046982;28;20061;-83
2021/05/13 09:11:49;;;;;;;18.13;13.48;;;;;;;19.88;53.32;100866.66;5048768;28;20025;-85
2021/05/13 09:14:25;;;;;;;17.58;12.25;;;;;;;20.04;53.50;100869.31;5049480;28;20029;-87
2021/05/13 09:16:52;;;;;;;14.70;10.70;;;;;;;20.05;53.23;100863.00;5049510;28;20059;-87
2021/05/13 09:19:20;;;;;;;13.23;10.40;;;;;;;20.14;52.88;100859.72;5047695;28;20037;-90
2021/05/13 09:22:05;;;;;;;15.15;10.23;;;;;;;20.30;51.74;100853.41;5047489;28;20065;-84
2021/05/13 09:24:54;;;;;;;16.98;9.65;;;;;;;20.34;51.13;100849.59;5046374;28;20065;-82
2021/05/13 09:35:32;;;;;;;19.20;11.27;;;;;;;20.45;51.04;100843.53;5070654;27;20446;-81
2021/05/13 09:38:00;;;;;;;12.25;9.60;;;;;;;20.57;51.08;100845.47;5063550;28;20029;-83
2021/05/13 09:40:50;;;;;;;21.20;11.93;;;;;;;20.82;50.45;100843.97;5059322;28;20542;-86
2021/05/13 09:46:03;;;;;;;16.25;9.93;;;;;;;20.90;50.13;100841.66;5086852;27;20373;-92
2021/05/13 09:56:50;;;;;;;12.60;7.97;;;;;;;21.31;48.56;100835.44;5080762;28;20943;-84
2021/05/13 10:02:00;;;;;;;15.38;8.10;;;;;;;21.45;48.24;100834.50;5097015;27;20375;-86
2021/05/13 10:04:27;;;;;;;10.02;6.25;;;;;;;21.46;48.26;100830.00;5084290;28;20479;-88
2021/05/13 10:06:54;;;;;;;10.18;6.82;;;;;;;21.52;47.77;100826.91;5082062;28;20535;-87
2021/05/13 10:09:21;;;;;;;13.05;7.70;;;;;;;21.56;46.83;100825.75;5071125;28;20598;-85
2021/05/13 10:14:34;;;;;;;11.13;6.13;;;;;;;21.72;46.50;100824.72;5071755;27;20406;-86
2021/05/13 10:17:04;;;;;;;10.32;6.00;;;;;;;21.89;46.47;100826.28;5068414;28;20161;-85
2021/05/13 10:19:37;;;;;;;10.65;6.28;;;;;;;22.03;45.93;100814.53;5046521;28;20036;-86
2021/05/13 10:22:05;;;;;;;9.00;5.55;;;;;;;22.20;46.05;100808.84;5049001;28;20472;-86
2021/05/13 10:24:31;;;;;;;9.30;5.38;;;;;;;22.34;45.40;100817.81;5048950;28;20384;-85
2021/05/13 10:26:57;;;;;;;14.70;6.22;;;;;;;22.48;44.99;100806.06;5050150;28;20029;-83
2021/05/13 10:32:12;;;;;;;12.80;6.32;;;;;;;22.85;44.61;100806.97;5063347;28;20366;-90
2021/05/13 10:37:37;;;;;;;9.98;5.55;;;;;;;23.23;42.51;100803.34;5073056;28;20434;-91
2021/05/13 10:43:08;;;;;;;8.75;5.18;;;;;;;23.32;40.33;100803.66;5091681;27;20443;-90
2021/05/13 10:46:21;;;;;;;;;;;;;;;;;;;;;
2021/05/13 10:55:08;;;;;;;;;;;;;;;;;;;;;
2021/05/13 11:00:51;;;;;;;8.38;4.85;;;;;;;23.81;39.86;100793.66;4943442;28;20502;-83
2021/05/13 11:03:20;;;;;;;11.57;4.38;;;;;;;23.68;40.35;100785.63;5048601;28;20025;-91
2021/05/13 11:05:46;;;;;;;9.50;4.10;;;;;;;23.56;40.60;100785.59;5047302;28;20044;-83
2021/05/13 11:11:00;;;;;;;8.32;4.47;;;;;;;23.66;41.32;100787.56;5030741;28;20785;-88
2021/05/13 11:13:45;;;;;;;8.90;4.63;;;;;;;23.82;39.83;100777.28;5023696;28;20026;-96
2021/05/13 11:16:52;;;;;;;10.95;4.80;;;;;;;23.98;39.54;100784.28;5018793;28;20116;-88
2021/05/13 11:19:22;;;;;;;6.72;4.38;;;;;;;24.10;39.78;100777.03;5009748;28;20113;-85
2021/05/13 11:22:01;;;;;;;5.72;3.88;;;;;;;24.14;39.87;100773.09;5006962;28;20388;-85
2021/05/13 11:24:43;;;;;;;7.45;4.05;;;;;;;23.95;40.26;100773.66;5001498;28;20041;-91
2021/05/13 11:27:11;;;;;;;8.38;4.50;;;;;;;23.74;40.02;100777.03;5002092;28;20037;-83
2021/05/13 11:32:26;;;;;;;6.72;4.28;;;;;;;24.15;39.20;100770.28;5065556;28;20418;-83
2021/05/13 11:34:53;;;;;;;9.98;4.40;;;;;;;24.32;38.75;100778.91;5050604;28;20056;-83
2021/05/13 11:37:40;;;;;;;7.88;3.83;;;;;;;24.38;36.95;100771.16;5058307;28;20057;-84
2021/05/13 11:40:31;;;;;;;6.18;3.17;;;;;;;24.27;37.95;100773.00;5044452;28;20025;-81
2021/05/13 11:43:21;;;;;;;8.48;3.35;;;;;;;24.08;37.63;100769.03;5048535;28;20867;-78
2021/05/13 11:45:52;;;;;;;5.90;2.85;;;;;;;23.84;38.16;100767.22;5046889;28;20078;-88
2021/05/13 11:48:39;;;;;;;8.40;3.22;;;;;;;23.89;38.50;100773.13;5023249;28;20420;-86
2021/05/13 11:51:09;;;;;;;6.70;2.88;;;;;;;23.74;39.35;100777.91;5045019;28;20033;-87
2021/05/13 11:53:37;;;;;;;14.88;3.38;;;;;;;23.77;39.40;100775.94;5029494;28;20060;-87
2021/05/13 11:56:05;;;;;;;6.47;2.85;;;;;;;23.83;39.64;100773.63;5046564;28;20025;-84
2021/05/13 12:07:15;;;;;;;8.40;2.95;;;;;;;24.57;37.15;100758.00;5109347;27;20417;-84
2021/05/13 12:09:49;;;;;;;9.33;3.40;;;;;;;24.71;35.43;100760.47;5083438;28;20120;-81
2021/05/13 12:12:22;;;;;;;6.80;2.70;;;;;;;24.71;36.58;100749.63;5071582;28;20288;-79
2021/05/13 12:14:48;;;;;;;8.00;2.83;;;;;;;24.64;36.71;100759.22;5077847;28;20032;-80
2021/05/13 12:17:14;;;;;;;6.28;3.13;;;;;;;24.58;37.06;100752.44;5072672;28;20086;-79
2021/05/13 12:19:43;;;;;;;5.97;3.50;;;;;;;24.66;36.91;100749.13;5073311;28;20028;-78
2021/05/13 12:22:13;;;;;;;5.13;3.10;;;;;;;24.71;36.06;100758.63;5075809;28;20023;-80
2021/05/13 12:24:43;;;;;;;7.78;3.45;;;;;;;24.83;35.46;100754.03;5073411;28;20036;-88
2021/05/13 12:27:14;;;;;;;6.90;3.58;;;;;;;24.82;34.73;100756.88;5060704;28;20036;-88
2021/05/13 12:29:41;;;;;;;6.25;2.80;;;;;;;24.81;34.76;100750.63;5087529;28;20028;-81
2021/05/13 12:32:09;;;;;;;6.22;3.53;;;;;;;24.73;34.75;100757.66;5075698;28;20471;-82
2021/05/13 12:34:42;;;;;;;6.85;3.10;;;;;;;24.80;34.71;100743.47;5087065;28;20464;-85
2021/05/13 12:37:19;;;;;;;4.85;2.83;;;;;;;24.76;34.60;100754.66;5088900;28;20047;-91
2021/05/13 12:39:46;;;;;;;6.28;3.83;;;;;;;24.79;34.64;100747.16;5090368;28;20059;-86
2021/05/13 12:42:29;;;;;;;4.80;3.33;;;;;;;25.05;33.66;100744.16;5074726;28;20041;-95
2021/05/13 12:45:24;;;;;;;7.15;4.00;;;;;;;25.20;33.94;100733.88;5078990;28;20483;-95
2021/05/13 12:48:02;;;;;;;5.97;3.20;;;;;;;25.26;33.18;100735.19;5087593;28;20056;-84
2021/05/13 12:50:30;;;;;;;5.63;2.60;;;;;;;25.20;33.78;100739.31;5088151;28;20035;-86
2021/05/13 12:55:58;;;;;;;6.40;2.67;;;;;;;25.19;34.50;100735.72;5052576;28;20458;-84
2021/05/13 12:58:27;;;;;;;5.40;2.30;;;;;;;25.28;34.42;100734.06;5043271;28;20037;-86
2021/05/13 13:03:41;;;;;;;8.88;3.45;;;;;;;25.08;35.94;100738.47;4815978;27;7384677;-91
2021/05/13 13:08:55;;;;;;;6.00;3.10;;;;;;;25.07;35.83;100734.03;5062092;28;20482;-89
2021/05/13 13:11:42;;;;;;;5.13;2.80;;;;;;;25.15;36.46;100722.56;5038394;28;20048;-90
2021/05/13 13:14:26;;;;;;;4.95;3.20;;;;;;;25.23;36.91;100728.19;5045901;28;20033;-87
2021/05/13 13:16:53;;;;;;;7.72;3.35;;;;;;;25.15;36.81;100726.13;5046078;28;20108;-91
2021/05/13 13:19:29;;;;;;;8.10;3.50;;;;;;;25.22;36.41;100720.19;5038695;28;20041;-91
2021/05/13 13:22:08;;;;;;;5.47;3.00;;;;;;;25.25;36.40;100719.94;5045803;28;20033;-79
2021/05/13 13:24:34;;;;;;;6.60;2.75;;;;;;;25.26;36.98;100714.38;5038879;28;20026;-79
2021/05/13 13:27:04;;;;;;;5.40;3.13;;;;;;;25.34;36.81;100711.88;5051714;28;20075;-80
2021/05/13 13:29:31;;;;;;;6.03;3.10;;;;;;;25.42;36.68;100708.56;5045532;28;20025;-80
2021/05/13 13:32:02;;;;;;;8.23;3.70;;;;;;;25.35;36.09;100704.63;5042530;28;20519;-79
2021/05/13 13:34:35;;;;;;;5.90;2.83;;;;;;;25.40;36.46;100715.97;5046161;28;20461;-79
2021/05/13 13:37:02;;;;;;;5.88;3.35;;;;;;;25.38;36.79;100711.66;5042547;28;20061;-83
2021/05/13 13:39:28;;;;;;;7.07;3.28;;;;;;;25.35;38.05;100699.19;5041175;28;20075;-82
2021/05/13 13:41:54;;;;;;;6.50;3.60;;;;;;;25.37;38.19;100697.22;5035825;28;20053;-82
2021/05/13 13:44:21;;;;;;;8.05;4.20;;;;;;;25.39;38.65;100692.53;5039774;28;20032;-83
2021/05/13 13:46:47;;;;;;;5.28;3.00;;;;;;;25.49;38.34;100692.59;5036571;28;20072;-83
2021/05/13 13:49:13;;;;;;;8.27;3.42;;;;;;;25.60;37.99;100691.69;5037509;28;20108;-81
2021/05/13 13:51:39;;;;;;;6.82;3.25;;;;;;;25.70;37.29;100694.47;5039698;28;20385;-84
2021/05/13 13:54:05;;;;;;;8.82;3.92;;;;;;;25.82;37.19;100690.66;5042462;28;20488;-83
2021/05/13 13:56:32;;;;;;;8.13;3.58;;;;;;;25.87;36.92;100688.44;5039860;28;20029;-83
2021/05/13 13:58:58;;;;;;;7.07;3.30;;;;;;;26.03;36.91;100696.06;5035588;28;20073;-84
2021/05/13 14:01:24;;;;;;;7.78;3.38;;;;;;;26.18;36.99;100684.91;5039821;28;20026;-84
2021/05/13 14:03:50;;;;;;;9.13;4.25;;;;;;;26.24;36.63;100679.75;5041440;28;20029;-83
2021/05/13 14:06:16;;;;;;;6.72;3.50;;;;;;;26.42;36.71;100679.13;5029045;28;20029;-83
2021/05/13 14:08:42;;;;;;;7.03;3.75;;;;;;;26.46;36.66;100681.41;5037139;28;20095;-84
2021/05/13 14:11:08;;;;;;;7.72;3.53;;;;;;;26.46;36.47;100681.41;5036401;28;20064;-82
2021/05/13 14:13:35;;;;;;;6.85;3.83;;;;;;;26.34;36.84;100678.97;5030678;28;20041;-82
2021/05/13 14:16:01;;;;;;;7.72;4.10;;;;;;;26.21;36.92;100673.78;5034239;28;20022;-82
2021/05/13 14:18:29;;;;;;;9.02;3.50;;;;;;;26.21;36.13;100679.22;5024464;28;20029;-81
2021/05/13 14:20:57;;;;;;;8.10;4.00;;;;;;;26.22;36.84;100675.47;5021629;28;20034;-85
2021/05/13 14:23:23;;;;;;;8.68;3.22;;;;;;;26.14;37.09;100674.31;5023518;28;20025;-85
2021/05/13 14:25:50;;;;;;;6.78;3.38;;;;;;;26.08;37.11;100669.44;5030996;28;20061;-81
2021/05/13 14:28:16;;;;;;;7.88;3.63;;;;;;;25.91;36.85;100673.59;5017288;28;20124;-79
2021/05/13 14:30:43;;;;;;;6.93;3.22;;;;;;;25.74;37.30;100669.63;5023561;28;20041;-79
2021/05/13 14:33:09;;;;;;;9.48;3.10;;;;;;;25.68;37.42;100668.34;5033201;28;20029;-81
2021/05/13 14:35:35;;;;;;;9.82;3.67;;;;;;;25.65;38.18;100657.72;5034848;28;20048;-81
2021/05/13 14:38:02;;;;;;;8.45;3.40;;;;;;;25.70;37.49;100664.63;5021529;28;20044;-84
2021/05/13 14:40:28;;;;;;;10.02;3.08;;;;;;;25.75;36.82;100660.50;5017758;28;20677;-80
2021/05/13 14:42:55;;;;;;;9.93;3.63;;;;;;;25.79;37.18;100655.66;5011190;28;20062;-80
2021/05/13 14:45:22;;;;;;;5.85;2.30;;;;;;;25.75;37.66;100654.22;5017277;28;20087;-79
2021/05/13 14:48:05;;;;;;;5.25;3.08;;;;;;;25.65;37.36;100654.16;5017551;28;20030;-79
2021/05/13 14:50:32;;;;;;;12.60;5.15;;;;;;;25.62;37.35;100652.59;5017073;28;20032;-80
2021/05/13 14:52:58;;;;;;;9.30;3.30;;;;;;;25.54;37.49;100655.09;5023480;28;20514;-81
2021/05/13 14:55:24;;;;;;;8.63;4.20;;;;;;;25.58;37.03;100653.81;5028000;28;20377;-80
2021/05/13 14:57:50;;;;;;;8.52;4.30;;;;;;;25.48;37.30;100655.63;5019311;28;20026;-81
2021/05/13 15:00:21;;;;;;;7.13;3.38;;;;;;;25.52;37.05;100648.94;5026717;28;20698;-81
2021/05/13 15:02:49;;;;;;;5.70;3.08;;;;;;;25.49;37.16;100658.19;5025614;28;20065;-82
2021/05/13 15:05:18;;;;;;;8.52;2.92;;;;;;;25.45;37.21;100655.91;5023807;28;20029;-81
2021/05/13 15:07:45;;;;;;;6.65;3.20;;;;;;;25.60;36.78;100651.84;5018825;28;20087;-80
2021/05/13 15:10:13;;;;;;;6.30;2.70;;;;;;;25.60;37.06;100649.13;5017859;28;20032;-84
2021/05/13 15:12:41;;;;;;;6.25;2.63;;;;;;;25.54;37.25;100652.38;5026712;28;20040;-82
2021/05/13 15:15:07;;;;;;;7.18;2.63;;;;;;;25.52;37.38;100651.66;5026464;28;20073;-82
2021/05/13 15:17:34;;;;;;;6.32;2.70;;;;;;;25.41;36.92;100647.16;5024605;28;20064;-83
2021/05/13 15:20:00;;;;;;;5.30;2.58;;;;;;;25.32;37.30;100646.06;5023149;28;20080;-82
2021/05/13 15:22:26;;;;;;;7.72;3.58;;;;;;;25.15;37.04;100644.78;5019809;28;20029;-82
2021/05/13 15:24:52;;;;;;;8.98;3.35;;;;;;;25.06;36.77;100650.13;5019899;28;20475;-82
2021/05/13 15:27:19;;;;;;;6.65;2.13;;;;;;;24.97;36.58;100649.06;5025628;28;20446;-87
2021/05/13 15:29:45;;;;;;;6.40;2.50;;;;;;;24.87;36.65;100647.13;5028385;28;20056;-84
2021/05/13 15:32:11;;;;;;;8.55;2.20;;;;;;;24.85;36.61;100643.69;5023368;28;20053;-85
2021/05/13 15:34:38;;;;;;;4.30;1.80;;;;;;;24.80;36.27;100656.75;5022363;28;20028;-89
2021/05/13 15:37:09;;;;;;;6.05;2.17;;;;;;;24.76;36.57;100654.44;5020707;28;20048;-89
2021/05/13 15:39:35;;;;;;;4.57;1.75;;;;;;;24.72;36.48;100653.81;5017596;28;20080;-89
2021/05/13 15:42:02;;;;;;;4.00;1.50;;;;;;;24.76;36.83;100660.72;5016945;28;20017;-87
2021/05/13 15:44:28;;;;;;;5.78;2.13;;;;;;;24.75;36.95;100659.00;5022650;28;20057;-87
2021/05/13 15:46:55;;;;;;;4.63;1.80;;;;;;;24.60;36.64;100643.97;5028231;28;20042;-82
2021/05/13 15:49:24;;;;;;;5.35;1.80;;;;;;;24.60;36.65;100643.97;5022997;28;20108;-88
2021/05/13 15:51:51;;;;;;;5.05;1.88;;;;;;;24.51;37.32;100648.28;5025272;28;20034;-90
2021/05/13 15:54:17;;;;;;;6.18;2.05;;;;;;;24.45;37.03;100652.38;5026784;28;20084;-88
2021/05/13 15:56:43;;;;;;;7.60;1.85;;;;;;;24.25;37.33;100645.91;5025237;28;20076;-88
2021/05/13 15:59:10;;;;;;;6.63;1.98;;;;;;;24.08;38.01;100649.94;5023778;28;20034;-88
2021/05/13 16:01:37;;;;;;;10.40;2.97;;;;;;;23.94;37.84;100647.47;5026453;28;20029;-88
2021/05/13 16:04:04;;;;;;;4.90;1.75;;;;;;;23.64;37.61;100662.41;5019019;28;20031;-82
2021/05/13 16:06:31;;;;;;;7.82;1.90;;;;;;;23.45;37.40;100661.13;5023861;28;20108;-88
2021/05/13 16:08:57;;;;;;;4.65;1.70;;;;;;;23.19;37.69;100695.56;5019355;28;20580;-87
2021/05/13 16:11:26;;;;;;;5.95;2.30;;;;;;;22.91;37.14;100713.84;5022577;28;20087;-88
2021/05/13 16:13:53;;;;;;;7.75;1.73;;;;;;;22.67;38.23;100738.09;5021063;28;20032;-87
2021/05/13 16:16:20;;;;;;;4.82;3.20;;;;;;;22.08;39.84;100758.44;5019459;28;20563;-90
2021/05/13 16:18:47;;;;;;;10.75;4.70;;;;;;;21.03;43.03;100750.16;5024315;28;20040;-80
2021/05/13 16:21:16;;;;;;;5.05;4.18;;;;;;;20.44;44.92;100737.72;5030435;28;20028;-81
2021/05/13 16:23:45;;;;;;;8.45;4.43;;;;;;;19.88;46.54;100729.53;5030184;28;20466;-81
2021/05/13 16:26:14;;;;;;;7.57;4.50;;;;;;;19.40;48.32;100741.28;5017702;28;20034;-88
2021/05/13 16:28:40;;;;;;;7.07;4.68;;;;;;;18.89;50.10;100773.69;5029510;28;20041;-87
2021/05/13 16:31:08;;;;;;;18.08;7.63;;;;;;;18.62;50.98;100792.19;5018864;28;20033;-81
2021/05/13 16:33:34;;;;;;;20.27;6.93;;;;;;;17.66;52.82;100783.78;5022213;28;20104;-85
2021/05/13 16:36:01;;;;;;;20.40;8.90;;;;;;;17.13;55.79;100788.16;5018764;28;20462;-82
2021/05/13 16:38:29;;;;;;;13.93;8.70;;;;;;;16.60;59.60;100789.75;5029174;28;20083;-83
2021/05/13 16:40:55;;;;;;;15.07;8.65;;;;;;;16.16;62.44;100796.13;5032739;28;20026;-83
2021/05/13 16:43:27;;;;;;;23.50;9.73;;;;;;;16.17;62.51;100797.88;5030950;28;20436;-84
2021/05/13 16:45:54;;;;;;;;;;;;;;;16.29;63.19;100801.81;5032208;28;20523;-87
2021/05/13 16:48:21;;;;;;;11.80;8.38;;;;;;;16.07;62.84;100802.75;5032865;28;19913;-81
2021/05/13 16:50:48;;;;;;;14.90;8.98;;;;;;;15.89;63.64;100803.53;5032877;28;20029;-85
2021/05/13 16:53:14;;;;;;;14.20;8.43;;;;;;;16.01;62.88;100816.38;5032862;28;20393;-82
2021/05/13 16:55:44;;;;;;;16.40;8.48;;;;;;;16.04;63.03;100820.72;5032810;28;20087;-82
2021/05/13 16:58:10;;;;;;;15.48;9.25;;;;;;;16.00;62.95;100820.00;5028979;28;20084;-82
2021/05/13 17:00:37;;;;;;;16.75;8.32;;;;;;;15.94;63.53;100825.63;5032870;28;20378;-87
2021/05/13 17:03:04;;;;;;;11.48;7.40;;;;;;;15.87;63.70;100832.16;5032149;28;20025;-87
2021/05/13 17:05:32;;;;;;;12.38;6.68;;;;;;;15.66;64.59;100832.06;5032802;28;20037;-86
2021/05/13 17:08:03;;;;;;;10.57;7.45;;;;;;;15.61;64.88;100834.91;5029551;28;20076;-86
2021/05/13 17:10:31;;;;;;;10.95;6.90;;;;;;;15.72;64.48;100838.97;5022884;28;20035;-85
2021/05/13 17:13:04;;;;;;;8.77;6.30;;;;;;;15.84;64.24;100839.34;5032472;28;20052;-87
2021/05/13 17:15:31;;;;;;;10.40;7.40;;;;;;;15.82;64.22;100835.00;5032830;28;20030;-87
2021/05/13 17:17:58;;;;;;;10.00;7.13;;;;;;;15.71;64.41;100835.41;5032821;28;20026;-87
2021/05/13 17:20:25;;;;;;;10.35;6.70;;;;;;;15.71;64.44;100830.06;5031631;28;20112;-87
2021/05/13 17:22:51;;;;;;;10.38;7.15;;;;;;;15.71;64.30;100827.41;5026267;28;20423;-87
2021/05/13 17:25:18;;;;;;;10.98;7.75;;;;;;;15.65;65.12;100833.00;5032699;28;20029;-88
2021/05/13 17:27:44;;;;;;;10.68;7.60;;;;;;;15.62;64.69;100831.31;5032221;28;20026;-88
2021/05/13 17:30:14;;;;;;;10.63;8.30;;;;;;;15.58;65.32;100821.72;5032897;28;20113;-88
2021/05/13 17:32:44;;;;;;;9.55;7.93;;;;;;;15.64;64.93;100815.25;5032593;28;20472;-87
2021/05/13 17:35:13;;;;;;;16.08;8.98;;;;;;;15.41;65.91;100818.88;5032373;28;20022;-89
2021/05/13 17:37:41;;;;;;;15.35;9.63;;;;;;;15.55;65.15;100821.81;5031773;28;20488;-89
2021/05/13 17:40:09;;;;;;;15.05;9.27;;;;;;;15.51;65.40;100810.44;5031670;28;20030;-88
2021/05/13 17:42:37;;;;;;;17.08;8.73;;;;;;;15.45;65.69;100816.03;5032529;28;20100;-89
2021/05/13 17:45:05;;;;;;;14.70;10.38;;;;;;;15.40;66.20;100812.63;5032594;28;20095;-89
2021/05/13 17:47:32;;;;;;;15.13;9.65;;;;;;;15.48;65.72;100807.88;5032362;28;20122;-89
2021/05/13 17:49:59;;;;;;;16.48;10.75;;;;;;;15.49;65.80;100816.75;5032647;28;20030;-88
2021/05/13 17:52:25;;;;;;;18.55;11.15;;;;;;;15.38;66.09;100803.84;5030944;28;20040;-89
2021/05/13 17:54:51;;;;;;;14.30;10.68;;;;;;;15.31;66.17;100799.69;5035377;28;20029;-89
2021/05/13 17:57:17;;;;;;;15.15;10.20;;;;;;;15.39;65.88;100799.34;5036228;28;20041;-90
2021/05/13 17:59:53;;;;;;;14.85;8.88;;;;;;;15.29;66.52;100807.75;5036144;28;20469;-90
2021/05/13 18:02:19;;;;;;;12.48;8.25;;;;;;;15.42;65.98;100810.78;5036053;28;20025;-90
2021/05/13 18:04:45;;;;;;;12.23;9.02;;;;;;;15.46;66.09;100812.38;5033252;28;20041;-91
2021/05/13 18:07:12;;;;;;;10.18;8.43;;;;;;;15.50;66.13;100814.03;5036019;28;20109;-92
2021/05/13 18:09:38;;;;;;;14.07;8.38;;;;;;;15.48;66.12;100813.22;5038217;28;20121;-90
2021/05/13 18:12:06;;;;;;;11.98;8.48;;;;;;;15.44;66.38;100816.94;5043203;28;20033;-92
2021/05/13 18:14:32;;;;;;;14.32;7.95;;;;;;;15.35;66.56;100820.84;5038283;28;20132;-88
2021/05/13 18:16:59;;;;;;;12.15;8.35;;;;;;;15.34;66.16;100818.25;5036120;28;20029;-92
2021/05/13 18:19:25;;;;;;;12.43;7.53;;;;;;;15.35;66.03;100826.19;5033480;28;20053;-82
2021/05/13 18:21:54;;;;;;;13.07;7.25;;;;;;;15.42;65.96;100825.94;5035295;28;20033;-93
2021/05/13 18:24:29;;;;;;;9.95;7.72;;;;;;;15.57;66.04;100829.78;5035927;28;20480;-92
2021/05/13 18:26:55;;;;;;;9.20;6.93;;;;;;;15.59;66.12;100827.91;5036100;28;20029;-92
2021/05/13 18:29:21;;;;;;;10.35;7.82;;;;;;;15.67;66.16;100823.13;5036343;28;20048;-92
2021/05/13 18:31:48;;;;;;;11.05;6.53;;;;;;;15.69;66.26;100826.63;5035677;28;20022;-93
2021/05/13 18:34:14;;;;;;;10.35;6.78;;;;;;;15.78;65.75;100818.19;5034648;28;20029;-92
2021/05/13 18:36:40;;;;;;;10.15;7.35;;;;;;;15.77;65.81;100819.13;5029920;28;20034;-92
2021/05/13 18:39:07;;;;;;;9.88;6.68;;;;;;;15.72;65.73;100818.47;5035360;28;20033;-92
2021/05/13 18:41:39;;;;;;;10.15;7.40;;;;;;;15.73;65.64;100822.88;5035490;28;20041;-89
2021/05/13 18:44:06;;;;;;;10.90;7.05;;;;;;;15.73;65.64;100822.88;5033976;28;20040;-92
2021/05/13 18:46:33;;;;;;;14.38;7.10;;;;;;;15.68;65.61;100819.53;5035224;28;20477;-93
2021/05/13 18:48:59;;;;;;;10.85;7.43;;;;;;;15.63;65.49;100829.53;5035010;28;20488;-93
2021/05/13 18:51:31;;;;;;;9.50;6.32;;;;;;;15.70;65.49;100822.97;5034082;28;20146;-93
2021/05/13 18:53:57;;;;;;;10.93;7.47;;;;;;;15.64;65.66;100826.81;5035303;28;20022;-92
2021/05/13 18:56:26;;;;;;;8.70;7.45;;;;;;;15.68;65.39;100822.19;5035039;28;20116;-93
2021/05/13 18:58:53;;;;;;;11.27;7.70;;;;;;;15.68;65.63;100824.88;5035013;28;20025;-92
2021/05/13 19:01:20;;;;;;;10.73;7.40;;;;;;;15.62;65.77;100827.81;5036331;28;20022;-91
2021/05/13 19:03:48;;;;;;;10.35;7.00;;;;;;;15.63;65.52;100834.88;5029979;28;20413;-79
2021/05/13 19:06:14;;;;;;;8.35;7.13;;;;;;;15.64;65.45;100844.63;5029209;28;20095;-84
2021/05/13 19:08:41;;;;;;;8.85;6.60;;;;;;;15.65;65.50;100838.34;5024164;28;20037;-87